Time;durP1;ratioP1;P1;durP2;ratioP2;P2;SDS_P1;SDS_P2;PMS_P1;PMS_P2;Temp;Humidity;BMP_temperature;BMP_pressure;BME280_temperature;BME280_humidity;BME280_pressure;Samples;Min_cycle;Max_cycle;Signal;HPM_P1;HPM_P2
2022/07/30 00:01:19;;;;;;;10.43;5.85;;;;;;;24.26;73.43;98522.50;5055838;28;20040;-93
2022/07/30 00:03:46;;;;;;;9.05;6.15;;;;;;;24.28;73.53;98546.84;5052427;28;20045;-91
2022/07/30 00:06:12;;;;;;;9.50;6.28;;;;;;;24.18;73.97;98527.75;5053400;28;20450;-93
2022/07/30 00:08:38;;;;;;;9.27;5.57;;;;;;;24.05;75.13;98518.94;5056780;28;20072;-93
2022/07/30 00:11:03;;;;;;;9.18;6.03;;;;;;;24.01;75.72;98531.06;5054782;28;20564;-92
2022/07/30 00:13:29;;;;;;;10.05;6.45;;;;;;;23.99;75.78;98523.94;5055640;28;20383;-92
2022/07/30 00:15:55;;;;;;;9.30;6.07;;;;;;;23.96;75.54;98521.50;5055175;28;20067;-92
2022/07/30 00:18:21;;;;;;;9.93;6.47;;;;;;;23.86;75.95;98509.69;5055733;28;20037;-92
2022/07/30 00:20:48;;;;;;;11.30;6.35;;;;;;;23.88;76.10;98515.84;5055598;28;20033;-93
2022/07/30 00:23:14;;;;;;;9.68;5.97;;;;;;;23.86;76.35;98515.13;5055271;28;20561;-93
2022/07/30 00:25:40;;;;;;;11.05;6.57;;;;;;;23.78;76.60;98502.19;5055498;28;20125;-92
2022/07/30 00:28:06;;;;;;;12.07;6.05;;;;;;;23.85;77.80;98523.38;5054707;28;20056;-92
2022/07/30 00:30:32;;;;;;;11.05;6.70;;;;;;;23.76;77.82;98508.75;5054450;28;20501;-93
2022/07/30 00:32:57;;;;;;;11.68;6.35;;;;;;;23.73;78.22;98504.41;5055474;28;20218;-93
2022/07/30 00:35:23;;;;;;;11.68;6.70;;;;;;;23.73;78.22;98503.56;5055353;28;20047;-92
2022/07/30 00:37:50;;;;;;;10.52;6.40;;;;;;;23.76;77.88;98508.75;5054390;28;20039;-92
2022/07/30 00:40:16;;;;;;;11.45;6.50;;;;;;;23.65;78.23;98495.19;5054918;28;20385;-93
2022/07/30 00:42:44;;;;;;;9.68;6.13;;;;;;;23.71;78.21;98511.81;5054756;28;20055;-93
2022/07/30 00:45:12;;;;;;;11.27;7.38;;;;;;;23.67;78.63;98502.22;5054888;28;20048;-92
2022/07/30 00:47:39;;;;;;;10.90;6.70;;;;;;;23.74;78.71;98527.00;5054221;28;20103;-93
2022/07/30 00:50:07;;;;;;;13.43;7.10;;;;;;;23.71;78.78;98519.13;5054999;28;20045;-92
2022/07/30 00:52:33;;;;;;;11.50;6.65;;;;;;;23.63;78.57;98508.03;5054376;28;20056;-92
2022/07/30 00:55:01;;;;;;;9.65;6.78;;;;;;;23.68;78.96;98506.66;5054876;28;20037;-92
2022/07/30 00:57:27;;;;;;;11.20;6.28;;;;;;;23.70;78.33;98498.38;5054423;28;20067;-94
2022/07/30 00:59:54;;;;;;;10.52;6.30;;;;;;;23.69;78.72;98508.38;5054028;28;20040;-92
2022/07/30 01:02:19;;;;;;;13.57;7.22;;;;;;;23.73;79.34;98519.84;5054356;28;20410;-93
2022/07/30 01:04:46;;;;;;;11.52;7.13;;;;;;;23.61;79.26;98493.72;5053929;28;20098;-92
2022/07/30 01:07:11;;;;;;;10.85;6.22;;;;;;;23.72;78.30;98508.09;5054439;28;20040;-92
2022/07/30 01:09:37;;;;;;;12.48;7.03;;;;;;;23.72;78.23;98513.53;5054409;28;20043;-92
2022/07/30 01:12:06;;;;;;;10.30;6.28;;;;;;;23.68;77.88;98503.06;5053440;28;20068;-93
2022/07/30 01:14:33;;;;;;;12.45;6.60;;;;;;;23.70;78.02;98512.84;5053785;28;20482;-92
2022/07/30 01:17:00;;;;;;;8.82;6.38;;;;;;;23.68;77.94;98522.97;5053713;28;20037;-92
2022/07/30 01:22:39;;;;;;;10.45;6.00;;;;;;;23.68;77.42;98524.78;5091374;27;20374;-91
2022/07/30 01:25:11;;;;;;;8.63;6.20;;;;;;;23.63;77.15;98502.63;5089820;28;20123;-92
2022/07/30 01:27:42;;;;;;;12.65;6.32;;;;;;;23.58;76.53;98503.84;5091600;28;20089;-91
2022/07/30 01:30:10;;;;;;;10.35;6.28;;;;;;;23.67;75.58;98509.50;5090937;28;20532;-92
2022/07/30 01:32:40;;;;;;;11.73;6.05;;;;;;;23.66;74.79;98502.34;5092271;28;20040;-93
2022/07/30 01:35:08;;;;;;;10.38;6.25;;;;;;;23.66;74.58;98488.75;5091922;28;20050;-91
2022/07/30 01:37:35;;;;;;;12.87;6.50;;;;;;;23.73;73.98;98496.25;5091643;28;20110;-93
2022/07/30 01:40:03;;;;;;;11.63;6.38;;;;;;;23.82;73.87;98502.78;5091514;28;20370;-92
2022/07/30 01:42:29;;;;;;;9.82;5.85;;;;;;;23.81;73.41;98503.78;5091649;28;20044;-92
2022/07/30 01:44:59;;;;;;;12.13;6.10;;;;;;;23.78;73.56;98502.19;5091711;28;20043;-92
2022/07/30 01:47:27;;;;;;;10.73;6.35;;;;;;;23.73;73.07;98492.69;5091245;28;20807;-92
2022/07/30 01:49:54;;;;;;;12.02;7.07;;;;;;;23.74;72.69;98487.13;5090226;28;21008;-92
2022/07/30 01:52:22;;;;;;;9.98;5.78;;;;;;;23.72;72.69;98480.94;5091138;28;20044;-91
2022/07/30 01:54:51;;;;;;;9.52;5.75;;;;;;;23.78;72.12;98487.75;5090558;28;20051;-93
2022/07/30 01:57:19;;;;;;;7.45;5.55;;;;;;;23.76;72.27;98479.72;5090906;28;20048;-92
2022/07/30 01:59:49;;;;;;;8.07;5.95;;;;;;;23.79;72.01;98481.34;5091469;28;20043;-92
2022/07/30 02:02:16;;;;;;;12.30;6.28;;;;;;;23.77;72.16;98483.34;5090963;28;20052;-91
2022/07/30 02:04:42;;;;;;;9.48;5.72;;;;;;;23.78;71.67;98485.03;5089596;28;20127;-91
2022/07/30 02:07:15;;;;;;;10.98;5.75;;;;;;;23.88;72.05;98485.13;5090382;28;20570;-92
2022/07/30 02:09:49;;;;;;;10.05;6.00;;;;;;;23.75;71.85;98474.44;5090236;28;20048;-92
2022/07/30 02:12:27;;;;;;;9.55;6.00;;;;;;;23.71;71.46;98462.09;5088016;28;20044;-92
2022/07/30 02:14:55;;;;;;;;;;;;;;;23.82;72.03;98485.66;5090963;28;20036;-92
2022/07/30 02:17:35;;;;;;;10.20;6.28;;;;;;;23.65;71.96;98458.06;5089466;28;19921;-92
2022/07/30 02:20:03;;;;;;;8.93;6.10;;;;;;;23.68;71.90;98465.94;5088448;28;20222;-93
2022/07/30 02:22:35;;;;;;;9.45;6.10;;;;;;;23.64;71.96;98469.91;5089600;28;20098;-94
2022/07/30 02:25:03;;;;;;;10.27;5.93;;;;;;;23.68;72.11;98475.91;5089379;28;20485;-93
2022/07/30 02:27:32;;;;;;;13.18;5.93;;;;;;;23.66;72.00;98467.94;5090309;28;20063;-92
2022/07/30 02:29:59;;;;;;;;;;;;;;;23.69;71.96;98478.50;5090851;28;20432;-93
2022/07/30 02:32:32;;;;;;;7.30;6.03;;;;;;;23.60;72.23;98464.88;5085010;28;19924;-91
2022/07/30 02:35:09;;;;;;;10.10;6.18;;;;;;;23.51;72.61;98456.53;5076339;28;20044;-92
2022/07/30 02:37:36;;;;;;;11.82;6.05;;;;;;;23.58;72.81;98470.44;5075531;28;20043;-93
2022/07/30 02:40:03;;;;;;;11.75;6.30;;;;;;;23.50;72.92;98457.50;5077471;28;20040;-93
2022/07/30 02:42:30;;;;;;;10.63;6.38;;;;;;;23.44;72.86;98455.31;5077149;28;20048;-93
2022/07/30 02:44:57;;;;;;;9.50;5.60;;;;;;;23.49;73.08;98468.50;5076529;28;20504;-93
2022/07/30 02:47:25;;;;;;;13.15;6.20;;;;;;;23.44;73.15;98468.88;5074604;28;20124;-92
2022/07/30 02:49:54;;;;;;;8.27;6.15;;;;;;;23.40;73.58;98466.56;5077012;28;20093;-92
2022/07/30 02:52:21;;;;;;;12.68;6.65;;;;;;;23.44;73.79;98473.44;5075986;28;20094;-91
2022/07/30 02:54:51;;;;;;;11.67;6.33;;;;;;;23.34;74.19;98454.38;5075768;28;20114;-93
2022/07/30 02:57:20;;;;;;;9.40;5.82;;;;;;;23.43;74.06;98467.16;5076732;28;20033;-93
2022/07/30 02:59:46;;;;;;;;;;;;;;;23.47;74.30;98467.78;5077072;28;20036;-92
2022/07/30 03:02:13;;;;;;;9.77;5.90;;;;;;;23.47;74.09;98465.91;5076933;28;19966;-91
2022/07/30 03:04:40;;;;;;;11.32;6.15;;;;;;;23.44;74.29;98458.03;5076642;28;20119;-93
2022/07/30 03:07:08;;;;;;;7.18;5.72;;;;;;;23.37;74.06;98449.53;5076788;28;20037;-94
2022/07/30 03:09:35;;;;;;;12.02;6.35;;;;;;;23.43;73.55;98450.03;5076768;28;20059;-92
2022/07/30 03:12:02;;;;;;;10.55;5.60;;;;;;;23.38;73.52;98445.00;5076075;28;20055;-93
2022/07/30 03:14:29;;;;;;;8.43;6.10;;;;;;;23.51;73.36;98461.09;5076541;28;20475;-93
2022/07/30 03:16:57;;;;;;;8.88;5.75;;;;;;;23.45;73.51;98446.19;5076042;28;20374;-93
2022/07/30 03:19:26;;;;;;;11.10;6.45;;;;;;;23.42;73.51;98445.59;5076315;28;20037;-92
2022/07/30 03:21:55;;;;;;;10.05;5.82;;;;;;;23.49;73.47;98466.66;5074240;28;20531;-92
2022/07/30 03:24:23;;;;;;;10.10;6.20;;;;;;;23.44;73.58;98462.59;5074184;28;20540;-92
2022/07/30 03:26:51;;;;;;;11.32;5.72;;;;;;;23.40;73.71;98458.41;5078103;28;20063;-92
2022/07/30 03:29:18;;;;;;;11.30;6.23;;;;;;;23.32;73.73;98464.50;5075743;28;20032;-92
2022/07/30 03:31:45;;;;;;;10.98;6.05;;;;;;;23.37;73.43;98462.25;5075091;28;20504;-92
2022/07/30 03:34:12;;;;;;;8.82;5.85;;;;;;;23.29;73.02;98456.59;5075672;28;20041;-93
2022/07/30 03:36:40;;;;;;;9.35;6.00;;;;;;;23.25;72.28;98458.75;5075767;28;20805;-93
2022/07/30 03:39:07;;;;;;;8.90;5.45;;;;;;;23.19;71.62;98467.38;5075803;28;20037;-93
2022/07/30 03:41:35;;;;;;;9.48;5.97;;;;;;;23.09;71.51;98455.56;5078584;28;20036;-92
2022/07/30 03:44:01;;;;;;;10.88;5.72;;;;;;;23.08;71.59;98456.59;5074930;28;20079;-92
2022/07/30 03:46:27;;;;;;;7.30;5.47;;;;;;;23.03;71.48;98448.84;5075545;28;20046;-92
2022/07/30 03:48:55;;;;;;;10.23;6.38;;;;;;;23.04;71.47;98460.53;5076829;28;21152;-92
2022/07/30 03:51:21;;;;;;;8.93;5.17;;;;;;;22.98;71.12;98456.44;5073192;28;20040;-93
2022/07/30 03:53:50;;;;;;;8.75;5.53;;;;;;;22.92;71.62;98456.94;5075675;28;20041;-92
2022/07/30 03:56:17;;;;;;;9.52;6.00;;;;;;;22.82;71.81;98443.31;5075480;28;20094;-92
2022/07/30 03:58:44;;;;;;;7.60;5.57;;;;;;;22.83;71.70;98452.28;5075881;28;20043;-93
2022/07/30 04:01:10;;;;;;;9.52;5.65;;;;;;;22.69;72.11;98448.03;5075496;28;20040;-93
2022/07/30 04:03:36;;;;;;;8.90;5.68;;;;;;;22.72;72.66;98467.59;5075291;28;20040;-93
2022/07/30 04:06:02;;;;;;;9.60;5.93;;;;;;;22.49;72.95;98446.94;5074937;28;20794;-91
2022/07/30 04:08:28;;;;;;;8.70;6.20;;;;;;;22.45;73.23;98448.19;5074330;28;20041;-92
2022/07/30 04:10:56;;;;;;;9.05;5.68;;;;;;;22.48;73.68;98462.31;5075143;28;20060;-92
2022/07/30 04:13:21;;;;;;;9.40;5.97;;;;;;;22.50;73.29;98479.31;5075150;28;20493;-92
2022/07/30 04:15:54;;;;;;;10.38;5.40;;;;;;;22.41;72.99;98468.38;5074898;28;20132;-92
2022/07/30 04:18:23;;;;;;;10.50;5.63;;;;;;;22.45;72.94;98481.53;5073165;28;20037;-92
2022/07/30 04:20:51;;;;;;;13.63;5.75;;;;;;;22.49;72.60;98487.59;5073725;28;20044;-91
2022/07/30 04:23:18;;;;;;;8.88;5.47;;;;;;;22.45;72.42;98486.09;5074823;28;20068;-91
2022/07/30 04:25:45;;;;;;;8.93;5.63;;;;;;;22.46;71.93;98491.38;5074084;28;20040;-91
2022/07/30 04:28:12;;;;;;;8.68;6.00;;;;;;;22.55;71.87;98504.22;5075255;28;20048;-92
2022/07/30 04:30:39;;;;;;;12.43;5.88;;;;;;;22.48;71.24;98488.56;5073511;28;20050;-92
2022/07/30 04:33:07;;;;;;;7.15;5.50;;;;;;;22.50;71.01;98503.69;5074530;28;20396;-91
2022/07/30 04:35:34;;;;;;;8.77;6.30;;;;;;;22.55;71.05;98503.31;5074478;28;20036;-91
2022/07/30 04:38:03;;;;;;;11.30;6.00;;;;;;;22.56;71.62;98502.34;5072736;28;20532;-92
2022/07/30 04:40:30;;;;;;;9.75;5.80;;;;;;;22.61;71.75;98501.97;5071732;28;20102;-92
2022/07/30 04:42:56;;;;;;;11.02;5.47;;;;;;;22.59;71.54;98488.53;5073921;28;20036;-90
2022/07/30 04:45:22;;;;;;;13.25;6.13;;;;;;;22.72;71.86;98510.09;5073013;28;20055;-92
2022/07/30 04:47:48;;;;;;;9.75;5.88;;;;;;;22.76;71.63;98500.72;5074490;28;20392;-92
2022/07/30 04:50:19;;;;;;;9.80;5.97;;;;;;;22.82;71.77;98502.94;5074778;28;20404;-93
2022/07/30 04:52:45;;;;;;;8.30;5.88;;;;;;;22.91;72.26;98517.59;5073711;28;20040;-92
2022/07/30 04:55:12;;;;;;;10.45;5.72;;;;;;;22.87;71.39;98494.44;5074310;28;20036;-92
2022/07/30 04:57:41;;;;;;;8.60;5.95;;;;;;;22.96;71.41;98508.09;5074434;28;20081;-92
2022/07/30 05:00:08;;;;;;;8.15;6.55;;;;;;;23.06;71.69;98529.06;5073085;28;20049;-92
2022/07/30 05:02:39;;;;;;;8.88;5.43;;;;;;;23.10;71.77;98515.13;5072045;28;20052;-93
2022/07/30 05:05:06;;;;;;;8.32;6.03;;;;;;;23.20;71.47;98517.94;5074420;28;20040;-92
2022/07/30 05:07:36;;;;;;;9.23;5.83;;;;;;;23.34;69.54;98524.94;5073776;28;20505;-92
2022/07/30 05:10:02;;;;;;;10.13;5.68;;;;;;;23.49;69.23;98518.22;5074181;28;20634;-93
2022/07/30 05:12:32;;;;;;;10.15;5.93;;;;;;;23.98;68.62;98527.66;5074104;28;20032;-92
2022/07/30 05:14:57;;;;;;;9.07;5.93;;;;;;;24.47;66.88;98518.91;5074597;28;20045;-92
2022/07/30 05:17:23;;;;;;;8.02;5.38;;;;;;;24.64;65.16;98514.75;5074080;28;20393;-93
2022/07/30 05:19:49;;;;;;;9.63;5.50;;;;;;;24.62;64.43;98517.59;5074072;28;20036;-92
2022/07/30 05:22:15;;;;;;;9.63;5.95;;;;;;;24.48;65.46;98520.63;5073366;28;20496;-92
2022/07/30 05:24:42;;;;;;;8.10;5.43;;;;;;;24.46;64.82;98541.66;5074652;28;20048;-93
2022/07/30 05:27:08;;;;;;;9.68;5.40;;;;;;;24.34;65.60;98538.16;5073724;28;20120;-92
2022/07/30 05:29:33;;;;;;;8.60;5.45;;;;;;;24.26;65.54;98537.97;5077169;28;20485;-92
2022/07/30 05:31:59;;;;;;;7.05;5.50;;;;;;;24.14;66.62;98537.19;5074044;28;20036;-93
2022/07/30 05:34:25;;;;;;;8.82;6.15;;;;;;;24.10;66.04;98516.72;5074254;28;20047;-93
2022/07/30 05:36:50;;;;;;;14.93;6.00;;;;;;;24.45;65.82;98531.78;5074115;28;20517;-93
2022/07/30 05:39:16;;;;;;;9.55;5.30;;;;;;;24.82;64.52;98529.41;5074985;28;20392;-93
2022/07/30 05:41:44;;;;;;;9.30;6.30;;;;;;;25.16;62.87;98515.47;5074122;28;20427;-93
2022/07/30 05:44:10;;;;;;;9.93;6.68;;;;;;;25.19;63.02;98504.28;5074891;28;20086;-93
2022/07/30 05:46:36;;;;;;;10.68;6.70;;;;;;;25.51;61.94;98528.56;5074057;28;20052;-94
2022/07/30 05:49:02;;;;;;;8.52;6.30;;;;;;;25.54;61.67;98533.72;5074559;28;20035;-93
2022/07/30 05:51:28;;;;;;;11.43;6.80;;;;;;;25.57;61.12;98513.56;5074811;28;20501;-93
2022/07/30 05:53:54;;;;;;;10.55;6.53;;;;;;;25.62;61.19;98527.59;5073532;28;20040;-93
2022/07/30 05:56:19;;;;;;;9.18;5.90;;;;;;;25.51;61.39;98535.91;5079857;28;20127;-93
2022/07/30 05:58:47;;;;;;;8.93;5.80;;;;;;;25.70;61.44;98540.47;5074614;28;20041;-93
2022/07/30 06:01:12;;;;;;;10.25;6.10;;;;;;;25.64;61.43;98522.00;5074305;28;20094;-94
2022/07/30 06:03:39;;;;;;;9.35;6.30;;;;;;;25.87;60.67;98542.47;5074441;28;20041;-92
2022/07/30 06:06:06;;;;;;;12.55;6.43;;;;;;;26.09;59.34;98552.25;5074190;28;20124;-92
2022/07/30 06:08:32;;;;;;;8.30;5.72;;;;;;;26.15;59.02;98545.34;5079145;28;20528;-91
2022/07/30 06:10:58;;;;;;;10.63;6.28;;;;;;;25.94;60.51;98538.22;5078419;28;20123;-92
2022/07/30 06:13:23;;;;;;;10.57;6.15;;;;;;;25.92;59.65;98534.78;5077440;28;20039;-92
2022/07/30 06:15:51;;;;;;;8.10;5.55;;;;;;;25.77;59.94;98519.84;5077590;28;20040;-91
2022/07/30 06:18:17;;;;;;;7.95;5.45;;;;;;;25.97;59.51;98524.28;5078116;28;20112;-92
2022/07/30 06:20:42;;;;;;;8.55;6.10;;;;;;;26.01;59.15;98524.88;5077167;28;20072;-92
2022/07/30 06:23:08;;;;;;;10.05;5.90;;;;;;;26.07;59.40;98540.66;5077086;28;20037;-92
2022/07/30 06:25:34;;;;;;;9.60;5.35;;;;;;;26.28;58.62;98545.91;5077384;28;20041;-91
2022/07/30 06:28:00;;;;;;;9.70;5.88;;;;;;;26.34;58.09;98526.22;5078367;28;20108;-94
2022/07/30 06:30:27;;;;;;;9.45;5.38;;;;;;;26.34;58.49;98547.19;5080238;28;20063;-93
2022/07/30 06:32:55;;;;;;;11.00;5.80;;;;;;;26.18;59.19;98550.53;5079480;28;20443;-94
2022/07/30 06:35:21;;;;;;;13.83;6.20;;;;;;;26.44;58.58;98557.06;5079673;28;20033;-94
2022/07/30 06:37:47;;;;;;;8.43;5.82;;;;;;;26.57;58.01;98567.69;5079265;28;20044;-93
2022/07/30 06:40:13;;;;;;;8.20;5.82;;;;;;;26.10;58.96;98548.53;5078887;28;20068;-93
2022/07/30 06:42:38;;;;;;;14.68;6.32;;;;;;;26.27;59.08;98566.00;5078399;28;20040;-93
2022/07/30 06:45:06;;;;;;;8.13;5.70;;;;;;;25.85;59.64;98539.06;5078540;28;20555;-93
2022/07/30 06:47:33;;;;;;;11.57;6.22;;;;;;;26.34;59.45;98558.94;5079830;28;20050;-92
2022/07/30 06:50:02;;;;;;;10.00;6.10;;;;;;;26.49;58.56;98555.75;5078845;28;20044;-94
2022/07/30 06:52:27;;;;;;;8.13;6.03;;;;;;;26.68;57.75;98544.81;5080397;28;20041;-93
2022/07/30 06:54:53;;;;;;;9.88;5.78;;;;;;;26.89;57.23;98532.81;5080600;28;20066;-93
2022/07/30 06:57:19;;;;;;;10.50;6.32;;;;;;;27.02;57.29;98530.56;5080471;28;20045;-94
2022/07/30 06:59:45;;;;;;;9.65;6.20;;;;;;;26.94;57.70;98535.97;5080611;28;20056;-93
2022/07/30 07:02:11;;;;;;;10.10;5.60;;;;;;;26.73;58.68;98545.22;5078755;28;20119;-93
2022/07/30 07:04:36;;;;;;;14.27;6.65;;;;;;;26.69;60.08;98565.63;5077458;28;20033;-93
2022/07/30 07:07:04;;;;;;;11.15;6.68;;;;;;;26.58;60.08;98541.25;5078359;28;20044;-95
2022/07/30 07:09:30;;;;;;;10.20;7.28;;;;;;;26.57;61.39;98550.47;5076630;28;20052;-93
2022/07/30 07:11:55;;;;;;;12.50;7.55;;;;;;;26.70;60.83;98548.25;5077862;28;20509;-95
2022/07/30 07:14:21;;;;;;;15.75;7.63;;;;;;;27.10;58.44;98547.06;5078647;28;20045;-93
2022/07/30 07:16:47;;;;;;;11.02;7.53;;;;;;;27.43;58.06;98547.47;5079321;28;20037;-93
2022/07/30 07:19:13;;;;;;;14.15;7.55;;;;;;;27.59;57.91;98538.59;5081520;28;20040;-93
2022/07/30 07:21:39;;;;;;;14.60;7.55;;;;;;;27.89;57.37;98552.91;5068274;28;20202;-93
2022/07/30 07:24:07;;;;;;;10.93;6.60;;;;;;;27.91;56.36;98529.88;5078171;28;20041;-93
2022/07/30 07:26:33;;;;;;;14.75;7.00;;;;;;;28.10;55.98;98525.25;5082236;28;20114;-94
2022/07/30 07:28:59;;;;;;;10.95;7.07;;;;;;;27.67;56.90;98538.66;5079269;28;20048;-93
2022/07/30 07:31:26;;;;;;;11.68;6.97;;;;;;;27.83;56.74;98532.50;5078731;28;20048;-93
2022/07/30 07:33:53;;;;;;;10.60;6.95;;;;;;;28.06;56.30;98554.75;5079562;28;20041;-94
2022/07/30 07:36:19;;;;;;;8.10;6.20;;;;;;;28.21;56.42;98542.22;5080890;28;20045;-92
2022/07/30 07:38:45;;;;;;;9.82;6.13;;;;;;;28.65;54.73;98544.97;5081256;28;20766;-93
2022/07/30 07:41:12;;;;;;;9.52;6.38;;;;;;;28.91;54.10;98545.94;5078142;28;20052;-93
2022/07/30 07:43:39;;;;;;;9.50;5.57;;;;;;;29.01;52.09;98535.72;5077709;28;20075;-93
2022/07/30 07:46:05;;;;;;;9.25;6.20;;;;;;;28.31;54.94;98549.50;5077075;28;20047;-93
2022/07/30 07:48:31;;;;;;;10.63;6.43;;;;;;;28.59;53.76;98531.94;5080137;28;20041;-92
2022/07/30 07:50:57;;;;;;;9.48;5.85;;;;;;;28.81;53.77;98527.78;5075944;28;20044;-94
2022/07/30 07:53:23;;;;;;;11.45;6.30;;;;;;;29.19;53.21;98544.75;5079369;28;20048;-94
2022/07/30 07:55:49;;;;;;;8.10;5.75;;;;;;;29.44;50.68;98523.75;5079126;28;20079;-93
2022/07/30 07:58:17;;;;;;;6.72;5.40;;;;;;;29.58;49.93;98524.09;5078716;28;20068;-94
2022/07/30 08:00:42;;;;;;;7.82;5.30;;;;;;;29.98;49.43;98519.72;5074702;28;20040;-92
2022/07/30 08:03:08;;;;;;;9.68;5.68;;;;;;;30.10;47.58;98513.72;5075179;28;20435;-93
2022/07/30 08:05:34;;;;;;;12.63;5.65;;;;;;;29.96;48.78;98525.38;5075052;28;20047;-95
2022/07/30 08:08:00;;;;;;;6.68;5.03;;;;;;;29.65;49.38;98514.19;5069720;28;20095;-93
2022/07/30 08:10:26;;;;;;;9.82;5.80;;;;;;;29.74;48.90;98531.53;5076956;28;20047;-92
2022/07/30 08:12:52;;;;;;;7.85;5.88;;;;;;;30.04;49.33;98544.56;5075028;28;20128;-95
2022/07/30 08:15:19;;;;;;;8.82;5.55;;;;;;;30.28;47.32;98532.75;5074603;28;20071;-92
2022/07/30 08:17:45;;;;;;;11.13;5.55;;;;;;;30.26;48.36;98522.97;5075614;28;20090;-90
2022/07/30 08:20:13;;;;;;;7.70;5.30;;;;;;;30.43;47.30;98524.69;5073434;28;20477;-93
2022/07/30 08:22:39;;;;;;;9.17;5.90;;;;;;;30.60;46.92;98522.78;5072237;28;20044;-93
2022/07/30 08:25:07;;;;;;;9.15;5.35;;;;;;;30.58;46.82;98516.59;5074855;28;20566;-93
2022/07/30 08:27:33;;;;;;;8.50;5.82;;;;;;;30.53;46.52;98518.16;5072522;28;20466;-94
2022/07/30 08:30:02;;;;;;;9.90;5.38;;;;;;;30.35;46.75;98505.50;5075044;28;20072;-91
2022/07/30 08:32:29;;;;;;;8.20;5.20;;;;;;;30.54;46.58;98522.63;5074417;28;20039;-93
2022/07/30 08:34:55;;;;;;;41.58;7.35;;;;;;;30.82;45.35;98517.56;5075210;28;20044;-94
2022/07/30 08:37:21;;;;;;;9.20;5.95;;;;;;;30.35;46.23;98521.09;5075875;28;20044;-94
2022/07/30 08:39:47;;;;;;;11.70;6.25;;;;;;;30.57;46.74;98523.09;5073978;28;20047;-93
2022/07/30 08:42:13;;;;;;;7.63;5.30;;;;;;;30.35;45.81;98505.50;5077119;28;20036;-95
2022/07/30 08:44:40;;;;;;;8.98;5.50;;;;;;;30.17;45.69;98507.56;5061360;28;20056;-94
2022/07/30 08:47:08;;;;;;;9.55;5.53;;;;;;;30.25;45.99;98537.69;5075936;28;20036;-92
2022/07/30 08:49:36;;;;;;;8.02;5.25;;;;;;;30.18;45.29;98539.44;5075651;28;20044;-94
2022/07/30 08:52:03;;;;;;;;;;;;;;;30.17;45.33;98535.84;5075573;28;20051;-93
2022/07/30 08:54:29;;;;;;;8.82;5.22;;;;;;;30.62;44.30;98528.94;5076552;28;19966;-93
2022/07/30 08:56:57;;;;;;;9.13;5.18;;;;;;;30.77;43.87;98529.03;5075581;28;20048;-93
2022/07/30 08:59:24;;;;;;;8.80;5.30;;;;;;;30.81;43.41;98507.59;5073342;28;20040;-93
2022/07/30 09:01:50;;;;;;;12.52;5.88;;;;;;;30.74;44.56;98512.94;5073627;28;20033;-93
2022/07/30 09:04:16;;;;;;;8.88;5.70;;;;;;;30.90;44.13;98504.69;5074039;28;20071;-93
2022/07/30 09:06:44;;;;;;;9.27;5.50;;;;;;;31.38;43.38;98506.47;5074939;28;20089;-92
2022/07/30 09:09:10;;;;;;;10.23;5.27;;;;;;;31.55;42.91;98513.63;5073216;28;20465;-91
2022/07/30 09:11:36;;;;;;;8.15;5.55;;;;;;;31.87;41.71;98523.53;5072361;28;20046;-90
2022/07/30 09:14:07;;;;;;;7.65;5.30;;;;;;;32.29;40.62;98524.06;5072586;28;20550;-90
2022/07/30 09:16:33;;;;;;;8.18;4.95;;;;;;;31.85;41.00;98505.50;5071987;28;20039;-92
2022/07/30 09:19:10;;;;;;;7.57;5.30;;;;;;;32.48;40.49;98495.16;5073189;28;20041;-93
2022/07/30 09:21:36;;;;;;;9.87;5.00;;;;;;;32.78;39.45;98507.06;5071957;28;20055;-93
2022/07/30 09:24:06;;;;;;;8.05;5.57;;;;;;;30.97;42.59;98524.06;5071791;28;20281;-92
2022/07/30 09:26:52;;;;;;;7.20;5.35;;;;;;;29.95;44.49;98520.94;5075501;28;20041;-93
2022/07/30 09:29:20;;;;;;;8.32;5.50;;;;;;;30.18;44.03;98512.00;5070555;28;20123;-93
2022/07/30 09:31:54;;;;;;;8.18;5.55;;;;;;;30.66;43.33;98512.97;5071170;28;20410;-92
2022/07/30 09:34:25;;;;;;;10.23;5.68;;;;;;;30.67;42.99;98511.94;5074082;28;20441;-93
2022/07/30 09:36:50;;;;;;;18.65;5.57;;;;;;;30.84;41.37;98501.75;5071563;28;20102;-92
2022/07/30 09:39:29;;;;;;;6.70;5.38;;;;;;;30.45;42.73;98508.91;5073400;28;20490;-93
2022/07/30 09:41:55;;;;;;;7.18;5.30;;;;;;;30.46;43.73;98505.13;5073937;28;20052;-92
2022/07/30 09:44:23;;;;;;;7.95;5.47;;;;;;;30.99;40.78;98497.28;5077811;28;20032;-92
2022/07/30 09:46:50;;;;;;;9.73;5.30;;;;;;;30.78;40.62;98519.78;5076829;28;20036;-93
2022/07/30 09:49:17;;;;;;;8.20;5.13;;;;;;;31.29;40.22;98519.41;5077689;28;20044;-93
2022/07/30 09:51:43;;;;;;;8.85;5.38;;;;;;;31.81;39.08;98512.41;5077303;28;20056;-95
2022/07/30 09:54:09;;;;;;;10.68;5.38;;;;;;;32.17;38.29;98498.06;5077682;28;20504;-93
2022/07/30 09:56:38;;;;;;;7.70;4.90;;;;;;;32.46;37.83;98503.59;5076469;28;20066;-90
2022/07/30 09:59:05;;;;;;;9.38;5.05;;;;;;;32.54;37.97;98500.78;5076502;28;20059;-94
2022/07/30 10:01:49;;;;;;;7.38;4.70;;;;;;;32.60;37.24;98506.59;5075638;28;20047;-89
2022/07/30 10:04:23;;;;;;;8.52;5.05;;;;;;;31.87;37.63;98495.19;5075423;28;20383;-91
2022/07/30 10:06:49;;;;;;;8.90;5.32;;;;;;;31.56;39.20;98493.34;5074784;28;20131;-90
2022/07/30 10:09:24;;;;;;;10.52;5.47;;;;;;;31.55;39.74;98491.63;5076272;28;20524;-90
2022/07/30 10:11:52;;;;;;;7.53;5.60;;;;;;;31.82;39.74;98493.00;5073677;28;20033;-92
2022/07/30 10:14:19;;;;;;;7.25;5.13;;;;;;;31.43;39.62;98482.97;5076089;28;20047;-93
2022/07/30 10:16:46;;;;;;;9.85;5.28;;;;;;;30.79;40.60;98496.78;5076743;28;20029;-93
2022/07/30 10:19:12;;;;;;;9.02;6.10;;;;;;;30.77;40.62;98487.88;5076682;28;20477;-93
2022/07/30 10:21:38;;;;;;;8.65;5.53;;;;;;;31.15;40.59;98473.50;5071790;28;20044;-94
2022/07/30 10:24:05;;;;;;;10.82;5.38;;;;;;;30.67;40.03;98489.97;5075986;28;20086;-92
2022/07/30 10:26:33;;;;;;;8.98;5.40;;;;;;;30.13;40.85;98493.31;5076727;28;20476;-92
2022/07/30 10:29:00;;;;;;;;;;;;;;;30.07;40.29;98485.78;5076792;28;20045;-95
2022/07/30 10:31:26;;;;;;;8.82;5.15;;;;;;;30.33;40.59;98469.16;5077050;28;19924;-94
2022/07/30 10:33:52;;;;;;;6.80;5.15;;;;;;;31.01;39.77;98469.59;5077464;28;20047;-93
2022/07/30 10:36:19;;;;;;;10.50;5.85;;;;;;;30.80;37.97;98468.31;5077323;28;20154;-93
2022/07/30 10:38:46;;;;;;;7.47;4.60;;;;;;;31.05;37.76;98452.59;5077422;28;20075;-90
2022/07/30 10:41:24;;;;;;;12.82;5.43;;;;;;;31.23;38.20;98455.09;5076860;28;20132;-93
2022/07/30 10:44:26;;;;;;;7.68;4.90;;;;;;;31.52;36.56;98462.63;5075342;28;20041;-91
2022/07/30 10:47:01;;;;;;;6.43;5.18;;;;;;;31.23;36.53;98455.09;5061709;28;20127;-93
2022/07/30 10:49:28;;;;;;;6.82;4.90;;;;;;;31.19;36.86;98448.22;5070340;28;20044;-93
2022/07/30 10:51:53;;;;;;;7.97;5.05;;;;;;;31.57;37.84;98442.84;5076009;28;20029;-92
2022/07/30 10:54:36;;;;;;;7.63;5.13;;;;;;;31.86;36.33;98436.59;5075043;28;20090;-93
2022/07/30 10:57:04;;;;;;;7.97;4.88;;;;;;;32.01;36.79;98431.16;5071993;28;20864;-92
2022/07/30 11:00:01;;;;;;;8.20;5.00;;;;;;;32.30;35.34;98434.97;5075291;28;20040;-89
2022/07/30 11:02:30;;;;;;;5.50;4.80;;;;;;;32.49;35.55;98434.41;5079458;28;20115;-95
2022/07/30 11:05:23;;;;;;;8.57;4.75;;;;;;;32.80;34.36;98429.78;5075812;28;20060;-93
2022/07/30 11:07:49;;;;;;;6.22;4.40;;;;;;;32.57;33.58;98427.13;5073161;28;20548;-92
2022/07/30 11:10:33;;;;;;;8.10;4.90;;;;;;;32.31;34.78;98436.66;5073040;28;20049;-92
2022/07/30 11:12:59;;;;;;;6.07;4.70;;;;;;;32.03;35.67;98430.94;5070312;28;20063;-92
2022/07/30 11:15:54;;;;;;;7.47;5.00;;;;;;;32.43;35.82;98429.66;5075349;28;20044;-92
2022/07/30 11:18:21;;;;;;;6.07;4.60;;;;;;;32.69;35.04;98429.19;5075269;28;20174;-93
2022/07/30 11:21:14;;;;;;;6.60;4.65;;;;;;;32.37;34.39;98430.41;5075971;28;20122;-95
2022/07/30 11:23:41;;;;;;;9.43;5.22;;;;;;;32.43;34.30;98418.66;5074093;28;20123;-93
2022/07/30 11:26:07;;;;;;;8.55;4.97;;;;;;;32.35;34.25;98427.00;5075796;28;20044;-93
2022/07/30 11:28:44;;;;;;;6.60;4.65;;;;;;;32.25;34.67;98412.66;5076441;28;20040;-91
2022/07/30 11:31:31;;;;;;;6.68;4.75;;;;;;;32.47;34.15;98416.38;5075493;28;20042;-92
2022/07/30 11:34:26;;;;;;;8.15;4.88;;;;;;;32.44;33.21;98431.34;5070598;28;20600;-94
2022/07/30 11:37:03;;;;;;;6.95;4.88;;;;;;;32.17;33.20;98412.78;5075452;28;20048;-93
2022/07/30 11:40:02;;;;;;;6.25;4.57;;;;;;;32.32;32.71;98417.22;5075365;28;20040;-93